KSDL

Scottsdale Airport

Scottsdale, Arizona, USA
METAR KSDL 201653Z 08010KT 10SM CLR 28/12 A3004 RMK AO2 SLP150 T02780117
Observed Flight Rules
Oct-20 @ 16:53 UTC (60 minutes ago) Visual Flight Rules
Wind Visibility Clouds
80° at 10 knots 10 miles
  • Clear skies
Temperatures Readings
Current 28°C / 82°F
Dewpoint 12°C / 54°F
Humidity 37%
Altimeter 30.04" Hg
Pressure 1015 hPa
Elevation 447
METAR KSDL 201653Z 08010KT 10SM CLR 28/12 A3004 RMK AO2 SLP150 T02780117
Observed Flight Rules
Oct-20 @ 16:53 UTC
(60 minutes ago)
VFR
Wind Visibility
80° at 10 knots 10 miles
Clouds
  • Clear skies
Temperature Dewpoint
28°C / 82°F 12°C / 54°F
Humidity Altimeter Pressure
37% 30.04" Hg 1015 hPa